Terminal Aerodrome Forecast
Issued by NWS Shreveport, LA

Home | Current Version | Previous Version | Text Only | Print | Product List | Glossary On
Versions: 1 2 3 4 5 6 7 8 9 10 11 12 13 14 15 16
000
FTUS44 KSHV 190938 AAA
TAFTXK
TAF AMD
KTXK 190938Z 1910/2006 08004KT P6SM -RA OVC090
      TEMPO 1910/1914 BKN015
     FM191400 23007KT P6SM SCT015 SCT140 SCT250
     FM191600 22012G18KT P6SM SCT030
     FM191900 22014G24KT P6SM SCT040
     FM192100 22014G24KT P6SM VCTS BKN040CB
     FM200300 27012G18KT P6SM SCT040=

USA.gov is the U.S. government's official web portal to all federal, state and local government web resources and services.